sensor_id;sensor_type;location;lat;lon;timestamp;P1;durP1;ratioP1;P2;durP2;ratioP2
20179;SDS011;10249;48.900;9.090;2023-10-13T00:01:20;11.70;;;11.30;;
20179;SDS011;10249;48.900;9.090;2023-10-13T00:03:47;11.90;;;11.50;;
20179;SDS011;10249;48.900;9.090;2023-10-13T00:06:14;11.57;;;11.17;;
20179;SDS011;10249;48.900;9.090;2023-10-13T00:08:43;11.77;;;11.37;;
20179;SDS011;10249;48.900;9.090;2023-10-13T00:11:13;11.70;;;11.30;;
20179;SDS011;10249;48.900;9.090;2023-10-13T00:13:42;11.63;;;11.23;;
20179;SDS011;10249;48.900;9.090;2023-10-13T00:16:15;11.53;;;11.13;;
20179;SDS011;10249;48.900;9.090;2023-10-13T00:18:46;11.73;;;11.33;;
20179;SDS011;10249;48.900;9.090;2023-10-13T00:21:14;12.03;;;11.63;;
20179;SDS011;10249;48.900;9.090;2023-10-13T00:23:45;11.97;;;11.57;;
20179;SDS011;10249;48.900;9.090;2023-10-13T00:26:18;11.60;;;11.20;;
20179;SDS011;10249;48.900;9.090;2023-10-13T00:28:50;11.57;;;11.17;;
20179;SDS011;10249;48.900;9.090;2023-10-13T00:31:24;11.77;;;11.37;;
20179;SDS011;10249;48.900;9.090;2023-10-13T00:33:57;11.83;;;11.43;;
20179;SDS011;10249;48.900;9.090;2023-10-13T00:36:35;11.50;;;11.10;;
20179;SDS011;10249;48.900;9.090;2023-10-13T00:39:02;11.60;;;11.20;;
20179;SDS011;10249;48.900;9.090;2023-10-13T00:41:31;12.60;;;12.10;;
20179;SDS011;10249;48.900;9.090;2023-10-13T00:44:17;12.40;;;11.90;;
20179;SDS011;10249;48.900;9.090;2023-10-13T00:46:50;12.50;;;12.00;;
20179;SDS011;10249;48.900;9.090;2023-10-13T00:49:21;12.00;;;11.50;;
20179;SDS011;10249;48.900;9.090;2023-10-13T00:51:48;12.00;;;11.50;;
20179;SDS011;10249;48.900;9.090;2023-10-13T00:54:14;12.30;;;11.80;;
20179;SDS011;10249;48.900;9.090;2023-10-13T00:56:43;12.50;;;12.00;;
20179;SDS011;10249;48.900;9.090;2023-10-13T00:59:14;12.40;;;11.90;;
20179;SDS011;10249;48.900;9.090;2023-10-13T01:01:42;12.33;;;11.83;;
20179;SDS011;10249;48.900;9.090;2023-10-13T01:04:09;12.30;;;11.80;;
20179;SDS011;10249;48.900;9.090;2023-10-13T01:06:38;12.30;;;11.80;;
20179;SDS011;10249;48.900;9.090;2023-10-13T01:09:05;12.17;;;11.67;;
20179;SDS011;10249;48.900;9.090;2023-10-13T01:11:41;12.40;;;11.90;;
20179;SDS011;10249;48.900;9.090;2023-10-13T01:14:08;12.40;;;11.90;;
20179;SDS011;10249;48.900;9.090;2023-10-13T01:16:36;12.60;;;12.10;;
20179;SDS011;10249;48.900;9.090;2023-10-13T01:19:06;12.70;;;12.20;;
20179;SDS011;10249;48.900;9.090;2023-10-13T01:21:34;12.33;;;11.83;;
20179;SDS011;10249;48.900;9.090;2023-10-13T01:24:01;12.50;;;12.00;;
20179;SDS011;10249;48.900;9.090;2023-10-13T01:26:33;12.43;;;11.93;;
20179;SDS011;10249;48.900;9.090;2023-10-13T01:29:03;12.37;;;11.87;;
20179;SDS011;10249;48.900;9.090;2023-10-13T01:31:37;12.40;;;11.90;;
20179;SDS011;10249;48.900;9.090;2023-10-13T01:34:03;12.60;;;12.10;;
20179;SDS011;10249;48.900;9.090;2023-10-13T01:36:31;12.80;;;12.30;;
20179;SDS011;10249;48.900;9.090;2023-10-13T01:39:02;12.80;;;12.30;;
20179;SDS011;10249;48.900;9.090;2023-10-13T01:41:30;12.80;;;12.30;;
20179;SDS011;10249;48.900;9.090;2023-10-13T01:43:56;12.77;;;12.27;;
20179;SDS011;10249;48.900;9.090;2023-10-13T01:46:23;13.13;;;12.60;;
20179;SDS011;10249;48.900;9.090;2023-10-13T01:48:49;13.00;;;12.50;;
20179;SDS011;10249;48.900;9.090;2023-10-13T01:51:19;13.10;;;12.60;;
20179;SDS011;10249;48.900;9.090;2023-10-13T01:53:48;12.97;;;12.47;;
20179;SDS011;10249;48.900;9.090;2023-10-13T01:56:22;13.30;;;12.70;;
20179;SDS011;10249;48.900;9.090;2023-10-13T01:58:48;13.30;;;12.70;;
20179;SDS011;10249;48.900;9.090;2023-10-13T02:01:17;13.30;;;12.70;;
20179;SDS011;10249;48.900;9.090;2023-10-13T02:03:51;13.20;;;12.70;;
20179;SDS011;10249;48.900;9.090;2023-10-13T02:06:26;13.30;;;12.70;;
20179;SDS011;10249;48.900;9.090;2023-10-13T02:08:57;12.87;;;12.37;;
20179;SDS011;10249;48.900;9.090;2023-10-13T02:11:30;13.07;;;12.57;;
20179;SDS011;10249;48.900;9.090;2023-10-13T02:13:56;13.10;;;12.60;;
20179;SDS011;10249;48.900;9.090;2023-10-13T02:16:25;13.07;;;12.57;;
20179;SDS011;10249;48.900;9.090;2023-10-13T02:18:51;12.93;;;12.43;;
20179;SDS011;10249;48.900;9.090;2023-10-13T02:21:18;12.77;;;12.27;;
20179;SDS011;10249;48.900;9.090;2023-10-13T02:23:44;12.90;;;12.40;;
20179;SDS011;10249;48.900;9.090;2023-10-13T02:26:25;13.00;;;12.50;;
20179;SDS011;10249;48.900;9.090;2023-10-13T02:28:56;12.97;;;12.47;;
20179;SDS011;10249;48.900;9.090;2023-10-13T02:31:23;13.23;;;12.70;;
20179;SDS011;10249;48.900;9.090;2023-10-13T02:33:50;13.43;;;12.83;;
20179;SDS011;10249;48.900;9.090;2023-10-13T02:36:18;13.00;;;12.50;;
20179;SDS011;10249;48.900;9.090;2023-10-13T02:38:47;12.80;;;12.30;;
20179;SDS011;10249;48.900;9.090;2023-10-13T02:41:16;12.77;;;12.27;;
20179;SDS011;10249;48.900;9.090;2023-10-13T02:43:44;13.00;;;12.50;;
20179;SDS011;10249;48.900;9.090;2023-10-13T02:46:13;13.07;;;12.57;;
20179;SDS011;10249;48.900;9.090;2023-10-13T02:48:41;13.17;;;12.60;;
20179;SDS011;10249;48.900;9.090;2023-10-13T02:51:11;13.30;;;12.70;;
20179;SDS011;10249;48.900;9.090;2023-10-13T02:53:43;13.03;;;12.53;;
20179;SDS011;10249;48.900;9.090;2023-10-13T02:56:13;13.47;;;12.87;;
20179;SDS011;10249;48.900;9.090;2023-10-13T02:58:40;13.60;;;13.00;;
20179;SDS011;10249;48.900;9.090;2023-10-13T03:01:10;13.30;;;12.70;;
20179;SDS011;10249;48.900;9.090;2023-10-13T03:03:45;13.43;;;12.83;;
20179;SDS011;10249;48.900;9.090;2023-10-13T03:06:19;13.33;;;12.77;;
20179;SDS011;10249;48.900;9.090;2023-10-13T03:08:48;13.90;;;13.30;;
20179;SDS011;10249;48.900;9.090;2023-10-13T03:11:15;13.47;;;12.87;;
20179;SDS011;10249;48.900;9.090;2023-10-13T03:13:46;13.80;;;13.20;;
20179;SDS011;10249;48.900;9.090;2023-10-13T03:16:16;13.40;;;12.80;;
20179;SDS011;10249;48.900;9.090;2023-10-13T03:18:44;13.50;;;12.90;;
20179;SDS011;10249;48.900;9.090;2023-10-13T03:21:18;13.37;;;12.77;;
20179;SDS011;10249;48.900;9.090;2023-10-13T03:23:53;13.50;;;12.90;;
20179;SDS011;10249;48.900;9.090;2023-10-13T03:26:20;13.47;;;12.87;;
20179;SDS011;10249;48.900;9.090;2023-10-13T03:28:47;13.30;;;12.70;;
20179;SDS011;10249;48.900;9.090;2023-10-13T03:31:17;13.30;;;12.70;;
20179;SDS011;10249;48.900;9.090;2023-10-13T03:33:45;13.33;;;12.73;;
20179;SDS011;10249;48.900;9.090;2023-10-13T03:36:14;13.03;;;12.53;;
20179;SDS011;10249;48.900;9.090;2023-10-13T03:39:01;12.80;;;12.30;;
20179;SDS011;10249;48.900;9.090;2023-10-13T03:41:32;13.23;;;12.63;;
20179;SDS011;10249;48.900;9.090;2023-10-13T03:44:02;12.97;;;12.47;;
20179;SDS011;10249;48.900;9.090;2023-10-13T03:46:37;12.90;;;12.40;;
20179;SDS011;10249;48.900;9.090;2023-10-13T03:49:07;13.10;;;12.60;;
20179;SDS011;10249;48.900;9.090;2023-10-13T03:51:38;12.90;;;12.40;;
20179;SDS011;10249;48.900;9.090;2023-10-13T03:54:05;13.20;;;12.60;;
20179;SDS011;10249;48.900;9.090;2023-10-13T03:56:33;13.03;;;12.53;;
20179;SDS011;10249;48.900;9.090;2023-10-13T03:59:05;13.13;;;12.57;;
20179;SDS011;10249;48.900;9.090;2023-10-13T04:01:35;13.20;;;12.60;;
20179;SDS011;10249;48.900;9.090;2023-10-13T04:04:12;13.23;;;12.63;;
20179;SDS011;10249;48.900;9.090;2023-10-13T04:06:40;13.03;;;12.53;;
20179;SDS011;10249;48.900;9.090;2023-10-13T04:09:38;12.93;;;12.43;;
20179;SDS011;10249;48.900;9.090;2023-10-13T04:12:35;13.30;;;12.70;;
20179;SDS011;10249;48.900;9.090;2023-10-13T04:15:20;13.30;;;12.70;;
20179;SDS011;10249;48.900;9.090;2023-10-13T04:18:02;13.40;;;12.80;;
20179;SDS011;10249;48.900;9.090;2023-10-13T04:20:40;12.87;;;12.37;;
20179;SDS011;10249;48.900;9.090;2023-10-13T04:23:11;13.43;;;12.83;;
20179;SDS011;10249;48.900;9.090;2023-10-13T04:25:50;17.40;;;16.53;;
20179;SDS011;10249;48.900;9.090;2023-10-13T04:28:34;12.97;;;12.47;;
20179;SDS011;10249;48.900;9.090;2023-10-13T04:31:05;13.40;;;12.80;;
20179;SDS011;10249;48.900;9.090;2023-10-13T04:33:37;13.27;;;12.67;;
20179;SDS011;10249;48.900;9.090;2023-10-13T04:36:18;13.43;;;12.83;;
20179;SDS011;10249;48.900;9.090;2023-10-13T04:39:01;13.30;;;12.70;;
20179;SDS011;10249;48.900;9.090;2023-10-13T04:41:35;13.43;;;12.83;;
20179;SDS011;10249;48.900;9.090;2023-10-13T04:44:04;13.30;;;12.70;;
20179;SDS011;10249;48.900;9.090;2023-10-13T04:46:51;13.07;;;12.53;;
20179;SDS011;10249;48.900;9.090;2023-10-13T04:49:33;13.50;;;12.90;;
20179;SDS011;10249;48.900;9.090;2023-10-13T04:52:16;13.63;;;13.03;;
20179;SDS011;10249;48.900;9.090;2023-10-13T04:55:00;13.80;;;13.20;;
20179;SDS011;10249;48.900;9.090;2023-10-13T04:57:42;14.73;;;14.03;;
20179;SDS011;10249;48.900;9.090;2023-10-13T05:00:25;13.70;;;13.10;;
20179;SDS011;10249;48.900;9.090;2023-10-13T05:03:15;13.67;;;13.07;;
20179;SDS011;10249;48.900;9.090;2023-10-13T05:06:00;14.03;;;13.43;;
20179;SDS011;10249;48.900;9.090;2023-10-13T05:08:57;13.87;;;13.27;;
20179;SDS011;10249;48.900;9.090;2023-10-13T05:11:42;13.70;;;13.10;;
20179;SDS011;10249;48.900;9.090;2023-10-13T05:14:26;13.60;;;13.00;;
20179;SDS011;10249;48.900;9.090;2023-10-13T05:17:11;13.90;;;13.30;;
20179;SDS011;10249;48.900;9.090;2023-10-13T05:19:55;13.90;;;13.30;;
20179;SDS011;10249;48.900;9.090;2023-10-13T05:22:40;13.80;;;13.20;;
20179;SDS011;10249;48.900;9.090;2023-10-13T05:25:23;13.60;;;13.00;;
20179;SDS011;10249;48.900;9.090;2023-10-13T05:28:16;13.30;;;12.70;;
20179;SDS011;10249;48.900;9.090;2023-10-13T05:31:03;13.30;;;12.70;;
20179;SDS011;10249;48.900;9.090;2023-10-13T05:33:48;13.50;;;12.90;;
20179;SDS011;10249;48.900;9.090;2023-10-13T05:36:32;13.43;;;12.83;;
20179;SDS011;10249;48.900;9.090;2023-10-13T05:39:17;14.00;;;13.40;;
20179;SDS011;10249;48.900;9.090;2023-10-13T05:42:03;13.80;;;13.20;;
20179;SDS011;10249;48.900;9.090;2023-10-13T05:44:48;14.37;;;13.67;;
20179;SDS011;10249;48.900;9.090;2023-10-13T05:47:42;14.37;;;13.67;;
20179;SDS011;10249;48.900;9.090;2023-10-13T05:50:26;14.60;;;13.90;;
20179;SDS011;10249;48.900;9.090;2023-10-13T05:53:10;14.63;;;13.93;;
20179;SDS011;10249;48.900;9.090;2023-10-13T05:55:59;14.50;;;13.80;;
20179;SDS011;10249;48.900;9.090;2023-10-13T05:58:46;14.70;;;14.00;;
20179;SDS011;10249;48.900;9.090;2023-10-13T06:01:30;14.80;;;14.10;;
20179;SDS011;10249;48.900;9.090;2023-10-13T06:04:15;14.10;;;13.40;;
20179;SDS011;10249;48.900;9.090;2023-10-13T06:06:56;13.80;;;13.20;;
20179;SDS011;10249;48.900;9.090;2023-10-13T06:09:41;14.27;;;13.57;;
20179;SDS011;10249;48.900;9.090;2023-10-13T06:12:25;14.07;;;13.47;;
20179;SDS011;10249;48.900;9.090;2023-10-13T06:15:11;14.27;;;13.57;;
20179;SDS011;10249;48.900;9.090;2023-10-13T06:17:56;14.20;;;13.50;;
20179;SDS011;10249;48.900;9.090;2023-10-13T06:20:41;14.40;;;13.70;;
20179;SDS011;10249;48.900;9.090;2023-10-13T06:23:25;14.57;;;13.87;;
20179;SDS011;10249;48.900;9.090;2023-10-13T06:26:10;14.43;;;13.73;;
20179;SDS011;10249;48.900;9.090;2023-10-13T06:28:54;14.30;;;13.60;;
20179;SDS011;10249;48.900;9.090;2023-10-13T06:31:23;14.87;;;14.17;;
20179;SDS011;10249;48.900;9.090;2023-10-13T06:33:51;14.73;;;14.03;;
20179;SDS011;10249;48.900;9.090;2023-10-13T06:36:20;14.33;;;13.63;;
20179;SDS011;10249;48.900;9.090;2023-10-13T06:38:47;14.70;;;14.00;;
20179;SDS011;10249;48.900;9.090;2023-10-13T06:41:20;14.63;;;13.93;;
20179;SDS011;10249;48.900;9.090;2023-10-13T06:43:55;14.33;;;13.63;;
20179;SDS011;10249;48.900;9.090;2023-10-13T06:46:29;14.77;;;14.07;;
20179;SDS011;10249;48.900;9.090;2023-10-13T06:48:59;14.73;;;14.03;;
20179;SDS011;10249;48.900;9.090;2023-10-13T06:51:27;14.50;;;13.80;;
20179;SDS011;10249;48.900;9.090;2023-10-13T06:54:02;14.43;;;13.73;;
20179;SDS011;10249;48.900;9.090;2023-10-13T06:56:34;15.40;;;14.70;;
20179;SDS011;10249;48.900;9.090;2023-10-13T06:59:05;15.10;;;14.40;;
20179;SDS011;10249;48.900;9.090;2023-10-13T07:01:33;14.70;;;14.00;;
20179;SDS011;10249;48.900;9.090;2023-10-13T07:04:06;14.77;;;14.07;;
20179;SDS011;10249;48.900;9.090;2023-10-13T07:06:39;14.80;;;14.10;;
20179;SDS011;10249;48.900;9.090;2023-10-13T07:09:09;14.90;;;14.20;;
20179;SDS011;10249;48.900;9.090;2023-10-13T07:11:54;14.97;;;14.27;;
20179;SDS011;10249;48.900;9.090;2023-10-13T07:14:25;15.27;;;14.57;;
20179;SDS011;10249;48.900;9.090;2023-10-13T07:16:56;15.00;;;14.30;;
20179;SDS011;10249;48.900;9.090;2023-10-13T07:19:24;14.87;;;14.17;;
20179;SDS011;10249;48.900;9.090;2023-10-13T07:21:53;15.07;;;14.37;;
20179;SDS011;10249;48.900;9.090;2023-10-13T07:24:23;15.00;;;14.30;;
20179;SDS011;10249;48.900;9.090;2023-10-13T07:26:51;14.73;;;14.03;;
20179;SDS011;10249;48.900;9.090;2023-10-13T07:29:29;15.33;;;14.60;;
20179;SDS011;10249;48.900;9.090;2023-10-13T07:32:00;15.10;;;14.40;;
20179;SDS011;10249;48.900;9.090;2023-10-13T07:34:28;15.20;;;14.50;;
20179;SDS011;10249;48.900;9.090;2023-10-13T07:36:57;15.57;;;14.80;;
20179;SDS011;10249;48.900;9.090;2023-10-13T07:39:25;15.20;;;14.50;;
20179;SDS011;10249;48.900;9.090;2023-10-13T07:41:53;15.27;;;14.57;;
20179;SDS011;10249;48.900;9.090;2023-10-13T07:44:28;15.40;;;14.60;;
20179;SDS011;10249;48.900;9.090;2023-10-13T07:46:58;15.77;;;14.97;;
20179;SDS011;10249;48.900;9.090;2023-10-13T07:49:29;15.33;;;14.53;;
20179;SDS011;10249;48.900;9.090;2023-10-13T07:51:57;15.70;;;14.90;;
20179;SDS011;10249;48.900;9.090;2023-10-13T07:54:26;15.77;;;14.97;;
20179;SDS011;10249;48.900;9.090;2023-10-13T07:56:53;15.40;;;14.60;;
20179;SDS011;10249;48.900;9.090;2023-10-13T07:59:21;15.47;;;14.67;;
20179;SDS011;10249;48.900;9.090;2023-10-13T08:01:49;14.83;;;14.13;;
20179;SDS011;10249;48.900;9.090;2023-10-13T08:04:38;15.60;;;14.80;;
20179;SDS011;10249;48.900;9.090;2023-10-13T08:07:05;15.40;;;14.60;;
20179;SDS011;10249;48.900;9.090;2023-10-13T08:09:38;15.50;;;14.70;;
20179;SDS011;10249;48.900;9.090;2023-10-13T08:12:06;15.10;;;14.40;;
20179;SDS011;10249;48.900;9.090;2023-10-13T08:14:37;15.10;;;14.33;;
20179;SDS011;10249;48.900;9.090;2023-10-13T08:17:06;15.40;;;14.60;;
20179;SDS011;10249;48.900;9.090;2023-10-13T08:19:38;15.67;;;14.87;;
20179;SDS011;10249;48.900;9.090;2023-10-13T08:22:08;15.67;;;14.87;;
20179;SDS011;10249;48.900;9.090;2023-10-13T08:24:51;15.70;;;14.90;;
20179;SDS011;10249;48.900;9.090;2023-10-13T08:27:24;15.40;;;14.60;;
20179;SDS011;10249;48.900;9.090;2023-10-13T08:29:59;15.77;;;14.97;;
20179;SDS011;10249;48.900;9.090;2023-10-13T08:32:47;15.90;;;15.10;;
20179;SDS011;10249;48.900;9.090;2023-10-13T08:35:23;15.67;;;14.87;;
20179;SDS011;10249;48.900;9.090;2023-10-13T08:38:00;15.63;;;14.83;;
20179;SDS011;10249;48.900;9.090;2023-10-13T08:40:38;15.70;;;14.90;;
20179;SDS011;10249;48.900;9.090;2023-10-13T08:43:42;15.70;;;14.90;;
20179;SDS011;10249;48.900;9.090;2023-10-13T08:46:10;15.40;;;14.60;;
20179;SDS011;10249;48.900;9.090;2023-10-13T08:48:55;15.37;;;14.57;;
20179;SDS011;10249;48.900;9.090;2023-10-13T08:51:36;15.60;;;14.80;;
20179;SDS011;10249;48.900;9.090;2023-10-13T08:54:14;15.57;;;14.77;;
20179;SDS011;10249;48.900;9.090;2023-10-13T08:56:59;16.20;;;15.30;;
20179;SDS011;10249;48.900;9.090;2023-10-13T08:59:44;15.63;;;14.83;;
20179;SDS011;10249;48.900;9.090;2023-10-13T09:02:18;15.40;;;14.60;;
20179;SDS011;10249;48.900;9.090;2023-10-13T09:04:47;15.40;;;14.60;;
20179;SDS011;10249;48.900;9.090;2023-10-13T09:07:25;15.30;;;14.50;;
20179;SDS011;10249;48.900;9.090;2023-10-13T09:09:52;15.50;;;14.70;;
20179;SDS011;10249;48.900;9.090;2023-10-13T09:12:36;16.50;;;15.60;;
20179;SDS011;10249;48.900;9.090;2023-10-13T09:15:05;16.40;;;15.50;;
20179;SDS011;10249;48.900;9.090;2023-10-13T09:17:43;15.80;;;15.00;;
20179;SDS011;10249;48.900;9.090;2023-10-13T09:20:14;15.80;;;15.00;;
20179;SDS011;10249;48.900;9.090;2023-10-13T09:22:51;15.50;;;14.70;;
20179;SDS011;10249;48.900;9.090;2023-10-13T09:25:33;15.60;;;14.80;;
20179;SDS011;10249;48.900;9.090;2023-10-13T09:28:01;15.50;;;14.70;;
20179;SDS011;10249;48.900;9.090;2023-10-13T09:30:28;16.37;;;15.47;;
20179;SDS011;10249;48.900;9.090;2023-10-13T09:32:59;15.53;;;14.73;;
20179;SDS011;10249;48.900;9.090;2023-10-13T09:35:27;16.20;;;15.40;;
20179;SDS011;10249;48.900;9.090;2023-10-13T09:37:57;15.80;;;14.97;;
20179;SDS011;10249;48.900;9.090;2023-10-13T09:40:27;15.80;;;15.00;;
20179;SDS011;10249;48.900;9.090;2023-10-13T09:42:59;16.08;;;15.27;;
20179;SDS011;10249;48.900;9.090;2023-10-13T09:45:33;15.77;;;14.98;;
20179;SDS011;10249;48.900;9.090;2023-10-13T09:48:01;15.98;;;15.18;;
20179;SDS011;10249;48.900;9.090;2023-10-13T09:50:31;16.50;;;15.60;;
20179;SDS011;10249;48.900;9.090;2023-10-13T09:53:07;15.90;;;15.10;;
20179;SDS011;10249;48.900;9.090;2023-10-13T09:55:35;16.10;;;15.30;;
20179;SDS011;10249;48.900;9.090;2023-10-13T09:58:04;15.75;;;14.95;;
20179;SDS011;10249;48.900;9.090;2023-10-13T10:00:35;16.40;;;15.60;;
20179;SDS011;10249;48.900;9.090;2023-10-13T10:03:14;15.40;;;14.60;;
20179;SDS011;10249;48.900;9.090;2023-10-13T10:05:54;15.35;;;14.55;;
20179;SDS011;10249;48.900;9.090;2023-10-13T10:08:29;15.70;;;14.90;;
20179;SDS011;10249;48.900;9.090;2023-10-13T10:11:00;16.20;;;15.40;;
20179;SDS011;10249;48.900;9.090;2023-10-13T10:13:32;16.23;;;15.43;;
20179;SDS011;10249;48.900;9.090;2023-10-13T10:16:01;15.77;;;14.98;;
20179;SDS011;10249;48.900;9.090;2023-10-13T10:18:31;16.58;;;15.77;;
20179;SDS011;10249;48.900;9.090;2023-10-13T10:21:03;17.15;;;16.25;;
20179;SDS011;10249;48.900;9.090;2023-10-13T10:23:34;16.60;;;15.80;;
20179;SDS011;10249;48.900;9.090;2023-10-13T10:26:10;16.65;;;15.85;;
20179;SDS011;10249;48.900;9.090;2023-10-13T10:28:39;15.77;;;14.98;;
20179;SDS011;10249;48.900;9.090;2023-10-13T10:31:07;15.98;;;15.07;;
20179;SDS011;10249;48.900;9.090;2023-10-13T10:33:38;15.95;;;15.05;;
20179;SDS011;10249;48.900;9.090;2023-10-13T10:36:05;16.27;;;15.38;;
20179;SDS011;10249;48.900;9.090;2023-10-13T10:38:38;16.15;;;15.25;;
20179;SDS011;10249;48.900;9.090;2023-10-13T10:41:24;16.00;;;15.10;;
20179;SDS011;10249;48.900;9.090;2023-10-13T10:43:54;16.40;;;15.50;;
20179;SDS011;10249;48.900;9.090;2023-10-13T10:46:25;15.90;;;15.10;;
20179;SDS011;10249;48.900;9.090;2023-10-13T10:48:53;15.98;;;15.18;;
20179;SDS011;10249;48.900;9.090;2023-10-13T10:51:26;16.90;;;16.00;;
20179;SDS011;10249;48.900;9.090;2023-10-13T10:53:58;16.50;;;15.60;;
20179;SDS011;10249;48.900;9.090;2023-10-13T10:56:36;16.27;;;15.38;;
20179;SDS011;10249;48.900;9.090;2023-10-13T10:59:04;16.35;;;15.55;;
20179;SDS011;10249;48.900;9.090;2023-10-13T11:01:32;16.65;;;15.77;;
20179;SDS011;10249;48.900;9.090;2023-10-13T11:04:09;16.60;;;15.70;;
20179;SDS011;10249;48.900;9.090;2023-10-13T11:06:46;16.20;;;15.40;;
20179;SDS011;10249;48.900;9.090;2023-10-13T11:09:15;16.48;;;15.57;;
20179;SDS011;10249;48.900;9.090;2023-10-13T11:11:56;16.20;;;15.40;;
20179;SDS011;10249;48.900;9.090;2023-10-13T11:14:28;16.17;;;15.38;;
20179;SDS011;10249;48.900;9.090;2023-10-13T11:16:56;16.05;;;15.25;;
20179;SDS011;10249;48.900;9.090;2023-10-13T11:19:36;16.20;;;15.40;;
20179;SDS011;10249;48.900;9.090;2023-10-13T11:22:09;15.93;;;15.13;;
20179;SDS011;10249;48.900;9.090;2023-10-13T11:24:40;16.08;;;15.27;;
20179;SDS011;10249;48.900;9.090;2023-10-13T11:27:13;16.30;;;15.40;;
20179;SDS011;10249;48.900;9.090;2023-10-13T11:29:46;16.60;;;15.70;;
20179;SDS011;10249;48.900;9.090;2023-10-13T11:32:17;16.35;;;15.45;;
20179;SDS011;10249;48.900;9.090;2023-10-13T11:34:45;16.83;;;15.93;;
20179;SDS011;10249;48.900;9.090;2023-10-13T11:37:17;16.77;;;15.88;;
20179;SDS011;10249;48.900;9.090;2023-10-13T11:40:05;16.65;;;15.75;;
20179;SDS011;10249;48.900;9.090;2023-10-13T11:42:37;17.23;;;16.25;;
20179;SDS011;10249;48.900;9.090;2023-10-13T11:45:08;16.60;;;15.70;;
20179;SDS011;10249;48.900;9.090;2023-10-13T11:47:53;16.65;;;15.75;;
20179;SDS011;10249;48.900;9.090;2023-10-13T11:50:25;17.25;;;16.35;;
20179;SDS011;10249;48.900;9.090;2023-10-13T11:52:59;17.73;;;16.83;;
20179;SDS011;10249;48.900;9.090;2023-10-13T11:55:27;16.58;;;15.68;;
20179;SDS011;10249;48.900;9.090;2023-10-13T11:57:54;16.35;;;15.45;;
20179;SDS011;10249;48.900;9.090;2023-10-13T12:00:24;16.17;;;15.27;;
20179;SDS011;10249;48.900;9.090;2023-10-13T12:03:12;16.27;;;15.38;;
20179;SDS011;10249;48.900;9.090;2023-10-13T12:05:57;16.50;;;15.60;;
20179;SDS011;10249;48.900;9.090;2023-10-13T12:08:44;16.23;;;15.32;;
20179;SDS011;10249;48.900;9.090;2023-10-13T12:11:18;16.20;;;15.30;;
20179;SDS011;10249;48.900;9.090;2023-10-13T12:13:57;16.17;;;15.27;;
20179;SDS011;10249;48.900;9.090;2023-10-13T12:16:36;16.45;;;15.43;;
20179;SDS011;10249;48.900;9.090;2023-10-13T12:19:03;15.70;;;14.90;;
20179;SDS011;10249;48.900;9.090;2023-10-13T12:21:35;15.68;;;14.88;;
20179;SDS011;10249;48.900;9.090;2023-10-13T12:24:03;15.85;;;15.05;;
20179;SDS011;10249;48.900;9.090;2023-10-13T12:26:38;15.70;;;14.90;;
20179;SDS011;10249;48.900;9.090;2023-10-13T12:29:07;15.82;;;15.02;;
20179;SDS011;10249;48.900;9.090;2023-10-13T12:31:47;15.73;;;14.93;;
20179;SDS011;10249;48.900;9.090;2023-10-13T12:34:26;15.60;;;14.80;;
20179;SDS011;10249;48.900;9.090;2023-10-13T12:37:11;15.52;;;14.73;;
20179;SDS011;10249;48.900;9.090;2023-10-13T12:40:03;15.43;;;14.63;;
20179;SDS011;10249;48.900;9.090;2023-10-13T12:42:57;15.70;;;14.90;;
20179;SDS011;10249;48.900;9.090;2023-10-13T12:45:42;15.82;;;15.02;;
20179;SDS011;10249;48.900;9.090;2023-10-13T12:48:27;15.80;;;15.00;;
20179;SDS011;10249;48.900;9.090;2023-10-13T12:51:12;15.65;;;14.85;;
20179;SDS011;10249;48.900;9.090;2023-10-13T12:53:46;15.77;;;14.98;;
20179;SDS011;10249;48.900;9.090;2023-10-13T12:56:14;15.95;;;15.15;;
20179;SDS011;10249;48.900;9.090;2023-10-13T12:58:43;15.95;;;15.15;;
20179;SDS011;10249;48.900;9.090;2023-10-13T13:01:17;16.20;;;15.30;;
20179;SDS011;10249;48.900;9.090;2023-10-13T13:03:45;15.82;;;15.02;;
20179;SDS011;10249;48.900;9.090;2023-10-13T13:06:17;16.65;;;15.55;;
20179;SDS011;10249;48.900;9.090;2023-10-13T13:08:49;15.77;;;14.98;;
20179;SDS011;10249;48.900;9.090;2023-10-13T13:11:16;15.80;;;15.00;;
20179;SDS011;10249;48.900;9.090;2023-10-13T13:13:45;16.75;;;15.48;;
20179;SDS011;10249;48.900;9.090;2023-10-13T13:16:12;16.25;;;15.35;;
20179;SDS011;10249;48.900;9.090;2023-10-13T13:18:39;16.00;;;15.10;;
20179;SDS011;10249;48.900;9.090;2023-10-13T13:21:08;15.52;;;14.73;;
20179;SDS011;10249;48.900;9.090;2023-10-13T13:23:37;15.93;;;15.02;;
20179;SDS011;10249;48.900;9.090;2023-10-13T13:26:05;15.73;;;14.93;;
20179;SDS011;10249;48.900;9.090;2023-10-13T13:28:40;16.30;;;15.43;;
20179;SDS011;10249;48.900;9.090;2023-10-13T13:31:09;15.90;;;15.05;;
20179;SDS011;10249;48.900;9.090;2023-10-13T13:33:37;15.70;;;14.90;;
20179;SDS011;10249;48.900;9.090;2023-10-13T13:36:08;15.90;;;15.10;;
20179;SDS011;10249;48.900;9.090;2023-10-13T13:38:40;15.60;;;14.80;;
20179;SDS011;10249;48.900;9.090;2023-10-13T13:41:11;15.50;;;14.70;;
20179;SDS011;10249;48.900;9.090;2023-10-13T13:43:41;15.55;;;14.75;;
20179;SDS011;10249;48.900;9.090;2023-10-13T13:46:21;15.15;;;14.35;;
20179;SDS011;10249;48.900;9.090;2023-10-13T13:48:52;15.65;;;14.85;;
20179;SDS011;10249;48.900;9.090;2023-10-13T13:51:24;16.77;;;15.52;;
20179;SDS011;10249;48.900;9.090;2023-10-13T13:53:53;15.70;;;14.90;;
20179;SDS011;10249;48.900;9.090;2023-10-13T13:56:20;15.45;;;14.65;;
20179;SDS011;10249;48.900;9.090;2023-10-13T13:58:50;15.35;;;14.55;;
20179;SDS011;10249;48.900;9.090;2023-10-13T14:01:18;16.00;;;15.20;;
20179;SDS011;10249;48.900;9.090;2023-10-13T14:03:48;15.80;;;15.00;;
20179;SDS011;10249;48.900;9.090;2023-10-13T14:06:17;15.88;;;15.07;;
20179;SDS011;10249;48.900;9.090;2023-10-13T14:08:48;15.60;;;14.80;;
20179;SDS011;10249;48.900;9.090;2023-10-13T14:11:16;15.55;;;14.75;;
20179;SDS011;10249;48.900;9.090;2023-10-13T14:14:03;15.23;;;14.43;;
20179;SDS011;10249;48.900;9.090;2023-10-13T14:16:37;15.50;;;14.70;;
20179;SDS011;10249;48.900;9.090;2023-10-13T14:19:10;15.82;;;15.02;;
20179;SDS011;10249;48.900;9.090;2023-10-13T14:21:37;15.52;;;14.73;;
20179;SDS011;10249;48.900;9.090;2023-10-13T14:24:05;15.73;;;14.93;;
20179;SDS011;10249;48.900;9.090;2023-10-13T14:26:40;15.73;;;14.93;;
20179;SDS011;10249;48.900;9.090;2023-10-13T14:29:09;15.77;;;14.98;;
20179;SDS011;10249;48.900;9.090;2023-10-13T14:31:39;15.48;;;14.68;;
20179;SDS011;10249;48.900;9.090;2023-10-13T14:34:07;16.52;;;15.63;;
20179;SDS011;10249;48.900;9.090;2023-10-13T14:36:36;16.20;;;15.40;;
20179;SDS011;10249;48.900;9.090;2023-10-13T14:39:04;15.95;;;15.15;;
20179;SDS011;10249;48.900;9.090;2023-10-13T14:41:34;16.50;;;15.70;;
20179;SDS011;10249;48.900;9.090;2023-10-13T14:44:01;16.58;;;15.77;;
20179;SDS011;10249;48.900;9.090;2023-10-13T14:46:32;15.90;;;15.10;;
20179;SDS011;10249;48.900;9.090;2023-10-13T14:49:00;16.00;;;15.20;;
20179;SDS011;10249;48.900;9.090;2023-10-13T14:51:28;15.73;;;14.93;;
20179;SDS011;10249;48.900;9.090;2023-10-13T14:53:58;15.80;;;15.00;;
20179;SDS011;10249;48.900;9.090;2023-10-13T14:56:25;15.88;;;15.07;;
20179;SDS011;10249;48.900;9.090;2023-10-13T14:58:53;15.93;;;15.13;;